Terminal Aerodrome Forecast
Issued by NWS

Home | Current Version | Previous Version | Text Only | Print | Product List | Glossary On
Versions: 1 2 3 4 5 6 7 8 9 10 11 12 13 14 15 16 17 18
000
FTAK31 PANC 212326
TAFADL
TAF
PADL 212326Z 2200/2224 02018KT 1/2SM SN BLSN OVC010 WS010/09030KT
      TEMPO 2200/2204 02018G26KT 1/4SM SN BLSN OVC008
     FM220500 01012KT 1SM -SN BLSN OVC008 WS020/23035KT
     FM221200 18007KT 5SM -SN SCT008 BKN012
     FM221700 18005KT P6SM -SHSN SCT012 BKN030=

USA.gov is the U.S. government's official web portal to all federal, state and local government web resources and services.